sensor_id;sensor_type;location;lat;lon;timestamp;pressure;altitude;pressure_sealevel;temperature;humidity
43934;BME280;59081;42.706;23.306;2023-04-02T00:07:58;94378.97;;;8.01;69.37
43934;BME280;59081;42.706;23.306;2023-04-02T00:10:37;94183.09;;;6.67;68.73
43934;BME280;59081;42.706;23.306;2023-04-02T00:15:36;94250.38;;;7.18;68.67
43934;BME280;59081;42.706;23.306;2023-04-02T00:18:03;94358.69;;;7.86;68.35
43934;BME280;59081;42.706;23.306;2023-04-02T00:20:35;94278.97;;;7.30;68.25
43934;BME280;59081;42.706;23.306;2023-04-02T00:23:03;94191.13;;;6.74;67.76
43934;BME280;59081;42.706;23.306;2023-04-02T00:25:33;94177.72;;;6.76;67.59
43934;BME280;59081;42.706;23.306;2023-04-02T00:28:02;94129.31;;;6.35;67.66
43934;BME280;59081;42.706;23.306;2023-04-02T00:30:28;94212.69;;;6.97;67.96
43934;BME280;59081;42.706;23.306;2023-04-02T00:32:54;94236.16;;;7.23;67.00
43934;BME280;59081;42.706;23.306;2023-04-02T00:35:25;94168.88;;;6.72;67.03
43934;BME280;59081;42.706;23.306;2023-04-02T00:37:51;94273.97;;;7.41;66.37
43934;BME280;59081;42.706;23.306;2023-04-02T00:40:23;94225.63;;;7.22;66.11
43934;BME280;59081;42.706;23.306;2023-04-02T00:42:51;94181.59;;;6.91;66.41
43934;BME280;59081;42.706;23.306;2023-04-02T00:45:27;94077.66;;;6.24;65.90
43934;BME280;59081;42.706;23.306;2023-04-02T00:47:55;94145.66;;;6.63;65.92
43934;BME280;59081;42.706;23.306;2023-04-02T00:50:27;94264.22;;;7.40;66.23
43934;BME280;59081;42.706;23.306;2023-04-02T00:52:58;94174.47;;;6.81;66.12
43934;BME280;59081;42.706;23.306;2023-04-02T00:57:58;94239.31;;;7.34;66.21
43934;BME280;59081;42.706;23.306;2023-04-02T01:00:35;94211.84;;;7.25;65.63
43934;BME280;59081;42.706;23.306;2023-04-02T01:05:54;94204.03;;;7.11;66.08
43934;BME280;59081;42.706;23.306;2023-04-02T01:08:36;94269.25;;;7.54;65.74
43934;BME280;59081;42.706;23.306;2023-04-02T01:20:14;94366.91;;;8.12;66.41
43934;BME280;59081;42.706;23.306;2023-04-02T01:25:21;94161.03;;;6.32;70.27
43934;BME280;59081;42.706;23.306;2023-04-02T01:28:01;94205.66;;;6.58;71.57
43934;BME280;59081;42.706;23.306;2023-04-02T01:30:33;94285.06;;;6.96;72.70
43934;BME280;59081;42.706;23.306;2023-04-02T01:33:00;94357.97;;;7.19;73.88
43934;BME280;59081;42.706;23.306;2023-04-02T01:35:27;94128.13;;;5.49;74.97
43934;BME280;59081;42.706;23.306;2023-04-02T01:38:05;94295.78;;;6.49;75.97
43934;BME280;59081;42.706;23.306;2023-04-02T01:40:38;94362.66;;;6.77;76.59
43934;BME280;59081;42.706;23.306;2023-04-02T01:43:29;94380.53;;;6.81;77.19
43934;BME280;59081;42.706;23.306;2023-04-02T01:45:57;94289.97;;;6.02;78.51
43934;BME280;59081;42.706;23.306;2023-04-02T01:48:27;94272.81;;;6.01;79.00
43934;BME280;59081;42.706;23.306;2023-04-02T01:50:58;94184.03;;;5.44;78.92
43934;BME280;59081;42.706;23.306;2023-04-02T01:53:26;94229.66;;;5.76;79.00
43934;BME280;59081;42.706;23.306;2023-04-02T01:55:55;94175.59;;;5.22;79.66
43934;BME280;59081;42.706;23.306;2023-04-02T01:58:23;94287.25;;;5.85;80.54
43934;BME280;59081;42.706;23.306;2023-04-02T02:00:54;94171.84;;;5.00;81.47
43934;BME280;59081;42.706;23.306;2023-04-02T02:03:21;94189.69;;;4.85;82.67
43934;BME280;59081;42.706;23.306;2023-04-02T02:05:51;94207.28;;;4.84;83.65
43934;BME280;59081;42.706;23.306;2023-04-02T02:08:50;94367.34;;;5.82;84.83
43934;BME280;59081;42.706;23.306;2023-04-02T02:11:21;94229.81;;;5.04;85.09
43934;BME280;59081;42.706;23.306;2023-04-02T02:13:54;94120.13;;;4.25;85.05
43934;BME280;59081;42.706;23.306;2023-04-02T02:16:21;94261.34;;;5.25;84.93
43934;BME280;59081;42.706;23.306;2023-04-02T02:18:50;94217.69;;;4.89;85.08
43934;BME280;59081;42.706;23.306;2023-04-02T02:21:48;94311.81;;;5.53;85.31
43934;BME280;59081;42.706;23.306;2023-04-02T02:24:23;94251.16;;;5.09;84.72
43934;BME280;59081;42.706;23.306;2023-04-02T02:30:04;94249.59;;;4.92;85.31
43934;BME280;59081;42.706;23.306;2023-04-02T02:32:37;94355.59;;;5.49;85.55
43934;BME280;59081;42.706;23.306;2023-04-02T02:35:11;94185.47;;;4.28;85.63
43934;BME280;59081;42.706;23.306;2023-04-02T02:37:43;94156.69;;;4.27;85.08
43934;BME280;59081;42.706;23.306;2023-04-02T02:40:25;94210.25;;;4.73;84.76
43934;BME280;59081;42.706;23.306;2023-04-02T02:42:56;94225.53;;;4.87;84.11
43934;BME280;59081;42.706;23.306;2023-04-02T02:45:27;94262.59;;;5.20;83.61
43934;BME280;59081;42.706;23.306;2023-04-02T02:47:56;94186.53;;;4.70;83.10
43934;BME280;59081;42.706;23.306;2023-04-02T02:50:26;94213.63;;;4.97;82.95
43934;BME280;59081;42.706;23.306;2023-04-02T02:52:56;94131.94;;;4.54;82.88
43934;BME280;59081;42.706;23.306;2023-04-02T02:55:32;94131.28;;;4.50;82.46
43934;BME280;59081;42.706;23.306;2023-04-02T02:58:05;94292.44;;;5.64;81.71
43934;BME280;59081;42.706;23.306;2023-04-02T03:00:34;94229.88;;;5.37;80.67
43934;BME280;59081;42.706;23.306;2023-04-02T03:03:04;94232.41;;;5.44;79.70
43934;BME280;59081;42.706;23.306;2023-04-02T03:05:31;94270.84;;;5.85;79.70
43934;BME280;59081;42.706;23.306;2023-04-02T03:07:57;94242.34;;;5.54;79.62
43934;BME280;59081;42.706;23.306;2023-04-02T03:10:44;94349.84;;;6.28;80.16
43934;BME280;59081;42.706;23.306;2023-04-02T03:13:29;94342.69;;;6.18;79.91
43934;BME280;59081;42.706;23.306;2023-04-02T03:21:45;94383.00;;;6.31;79.58
43934;BME280;59081;42.706;23.306;2023-04-02T03:24:32;94374.88;;;6.11;79.79
43934;BME280;59081;42.706;23.306;2023-04-02T03:27:13;94163.47;;;4.55;80.42
43934;BME280;59081;42.706;23.306;2023-04-02T03:29:50;94208.97;;;4.78;81.13
43934;BME280;59081;42.706;23.306;2023-04-02T03:32:26;94319.31;;;5.49;81.25
43934;BME280;59081;42.706;23.306;2023-04-02T03:35:16;94374.38;;;6.00;81.08
43934;BME280;59081;42.706;23.306;2023-04-02T03:37:49;94266.72;;;5.29;79.89
43934;BME280;59081;42.706;23.306;2023-04-02T03:40:21;94301.53;;;5.41;80.15
43934;BME280;59081;42.706;23.306;2023-04-02T03:45:48;94296.34;;;5.46;80.26
43934;BME280;59081;42.706;23.306;2023-04-02T03:50:57;94394.72;;;6.15;80.39
43934;BME280;59081;42.706;23.306;2023-04-02T03:53:25;94270.16;;;5.33;80.19
43934;BME280;59081;42.706;23.306;2023-04-02T03:55:52;94264.59;;;5.36;80.05
43934;BME280;59081;42.706;23.306;2023-04-02T03:58:37;94221.91;;;5.10;79.49
43934;BME280;59081;42.706;23.306;2023-04-02T04:04:07;94400.25;;;6.27;79.39
43934;BME280;59081;42.706;23.306;2023-04-02T04:06:32;94192.63;;;4.94;79.00
43934;BME280;59081;42.706;23.306;2023-04-02T04:09:19;94288.59;;;5.45;79.37
43934;BME280;59081;42.706;23.306;2023-04-02T04:11:52;94254.34;;;5.24;79.47
43934;BME280;59081;42.706;23.306;2023-04-02T04:14:32;94396.19;;;6.19;79.70
43934;BME280;59081;42.706;23.306;2023-04-02T04:17:03;94400.88;;;6.19;79.91
43934;BME280;59081;42.706;23.306;2023-04-02T04:22:21;94205.81;;;4.79;79.65
43934;BME280;59081;42.706;23.306;2023-04-02T04:24:55;94396.00;;;5.94;79.82
43934;BME280;59081;42.706;23.306;2023-04-02T04:27:34;94344.78;;;5.62;79.80
43934;BME280;59081;42.706;23.306;2023-04-02T04:30:39;94424.94;;;6.08;79.55
43934;BME280;59081;42.706;23.306;2023-04-02T04:36:00;94237.94;;;4.72;80.56
43934;BME280;59081;42.706;23.306;2023-04-02T04:38:37;94251.63;;;4.88;80.78
43934;BME280;59081;42.706;23.306;2023-04-02T04:41:22;94295.88;;;5.15;81.64
43934;BME280;59081;42.706;23.306;2023-04-02T04:46:45;94360.72;;;5.47;81.78
43934;BME280;59081;42.706;23.306;2023-04-02T04:51:53;94341.28;;;5.25;81.66
43934;BME280;59081;42.706;23.306;2023-04-02T04:54:25;94188.75;;;4.19;81.32
43934;BME280;59081;42.706;23.306;2023-04-02T04:57:01;94349.47;;;5.25;82.37
43934;BME280;59081;42.706;23.306;2023-04-02T04:59:34;94203.50;;;4.42;81.75
43934;BME280;59081;42.706;23.306;2023-04-02T05:02:11;94390.19;;;5.72;82.02
43934;BME280;59081;42.706;23.306;2023-04-02T05:04:41;94337.81;;;5.41;81.48
43934;BME280;59081;42.706;23.306;2023-04-02T05:07:17;94391.78;;;5.89;81.46
43934;BME280;59081;42.706;23.306;2023-04-02T05:12:33;94257.59;;;5.19;81.11
43934;BME280;59081;42.706;23.306;2023-04-02T05:15:16;94432.50;;;6.36;80.24
43934;BME280;59081;42.706;23.306;2023-04-02T05:18:18;94438.81;;;6.49;79.46
43934;BME280;59081;42.706;23.306;2023-04-02T05:23:27;94284.38;;;5.40;77.81
43934;BME280;59081;42.706;23.306;2023-04-02T05:26:04;94380.69;;;6.13;78.04
43934;BME280;59081;42.706;23.306;2023-04-02T05:28:39;94433.50;;;6.58;78.26
43934;BME280;59081;42.706;23.306;2023-04-02T05:31:14;94427.06;;;6.81;76.56
43934;BME280;59081;42.706;23.306;2023-04-02T05:33:45;94376.22;;;6.51;76.08
43934;BME280;59081;42.706;23.306;2023-04-02T05:36:21;94234.31;;;5.47;76.11
43934;BME280;59081;42.706;23.306;2023-04-02T05:38:48;94430.22;;;6.80;76.34
43934;BME280;59081;42.706;23.306;2023-04-02T05:41:36;94382.09;;;6.66;76.62
43934;BME280;59081;42.706;23.306;2023-04-02T05:44:07;94455.91;;;7.15;75.41
43934;BME280;59081;42.706;23.306;2023-04-02T05:46:45;94354.69;;;6.53;75.67
43934;BME280;59081;42.706;23.306;2023-04-02T05:49:22;94387.41;;;7.02;74.62
43934;BME280;59081;42.706;23.306;2023-04-02T05:51:51;94474.94;;;7.76;73.74
43934;BME280;59081;42.706;23.306;2023-04-02T05:57:03;94334.69;;;6.98;72.08
43934;BME280;59081;42.706;23.306;2023-04-02T05:59:35;94354.13;;;7.16;72.24
43934;BME280;59081;42.706;23.306;2023-04-02T06:08:08;94327.00;;;7.47;70.17
43934;BME280;59081;42.706;23.306;2023-04-02T06:10:43;94384.91;;;7.87;69.94
43934;BME280;59081;42.706;23.306;2023-04-02T06:13:15;94303.88;;;7.48;69.76
43934;BME280;59081;42.706;23.306;2023-04-02T06:15:42;94416.72;;;8.35;69.67
43934;BME280;59081;42.706;23.306;2023-04-02T06:18:14;94419.66;;;8.54;69.24
43934;BME280;59081;42.706;23.306;2023-04-02T06:20:41;94330.50;;;7.98;69.12
43934;BME280;59081;42.706;23.306;2023-04-02T06:28:43;94294.78;;;8.36;67.62
43934;BME280;59081;42.706;23.306;2023-04-02T06:34:00;94400.88;;;9.21;66.81
43934;BME280;59081;42.706;23.306;2023-04-02T06:36:28;94379.16;;;9.14;66.51
43934;BME280;59081;42.706;23.306;2023-04-02T06:39:03;94473.75;;;9.91;66.42
43934;BME280;59081;42.706;23.306;2023-04-02T06:41:31;94262.91;;;8.73;65.74
43934;BME280;59081;42.706;23.306;2023-04-02T06:43:57;94464.03;;;10.21;64.71
43934;BME280;59081;42.706;23.306;2023-04-02T06:46:30;94319.09;;;9.25;64.64
43934;BME280;59081;42.706;23.306;2023-04-02T06:49:02;94395.09;;;9.72;64.56
43934;BME280;59081;42.706;23.306;2023-04-02T06:51:32;94350.09;;;9.57;64.42
43934;BME280;59081;42.706;23.306;2023-04-02T06:54:00;94427.94;;;10.28;63.75
43934;BME280;59081;42.706;23.306;2023-04-02T06:56:44;94387.66;;;10.12;62.55
43934;BME280;59081;42.706;23.306;2023-04-02T06:59:11;94415.13;;;10.34;62.60
43934;BME280;59081;42.706;23.306;2023-04-02T07:01:43;94357.41;;;10.22;61.94
43934;BME280;59081;42.706;23.306;2023-04-02T07:04:11;94340.78;;;10.25;60.71
43934;BME280;59081;42.706;23.306;2023-04-02T07:06:37;94320.47;;;10.32;60.20
43934;BME280;59081;42.706;23.306;2023-04-02T07:09:04;94409.00;;;11.07;59.40
43934;BME280;59081;42.706;23.306;2023-04-02T07:11:31;94269.06;;;10.20;58.52
43934;BME280;59081;42.706;23.306;2023-04-02T07:13:58;94470.25;;;11.66;58.32
43934;BME280;59081;42.706;23.306;2023-04-02T07:16:25;94345.28;;;11.23;58.54
43934;BME280;59081;42.706;23.306;2023-04-02T07:18:53;94270.47;;;10.70;57.51
43934;BME280;59081;42.706;23.306;2023-04-02T07:21:21;94262.34;;;10.75;55.34
43934;BME280;59081;42.706;23.306;2023-04-02T07:23:47;94301.81;;;11.00;53.81
43934;BME280;59081;42.706;23.306;2023-04-02T07:26:19;94415.41;;;11.77;54.14
43934;BME280;59081;42.706;23.306;2023-04-02T07:28:46;94248.13;;;10.68;55.28
43934;BME280;59081;42.706;23.306;2023-04-02T07:31:22;94431.94;;;11.86;53.37
43934;BME280;59081;42.706;23.306;2023-04-02T07:33:49;94503.56;;;12.41;52.87
43934;BME280;59081;42.706;23.306;2023-04-02T07:36:22;94274.28;;;10.63;52.65
43934;BME280;59081;42.706;23.306;2023-04-02T07:38:57;94507.00;;;12.27;52.80
43934;BME280;59081;42.706;23.306;2023-04-02T07:41:23;94417.53;;;11.91;52.03
43934;BME280;59081;42.706;23.306;2023-04-02T07:43:52;94515.59;;;12.71;51.42
43934;BME280;59081;42.706;23.306;2023-04-02T07:46:18;94241.66;;;10.98;51.05
43934;BME280;59081;42.706;23.306;2023-04-02T07:48:50;94316.38;;;11.79;50.46
43934;BME280;59081;42.706;23.306;2023-04-02T07:51:21;94418.56;;;12.69;49.68
43934;BME280;59081;42.706;23.306;2023-04-02T07:53:53;94418.63;;;12.83;49.50
43934;BME280;59081;42.706;23.306;2023-04-02T07:56:23;94428.72;;;12.96;48.65
43934;BME280;59081;42.706;23.306;2023-04-02T07:59:12;94275.38;;;11.54;48.62
43934;BME280;59081;42.706;23.306;2023-04-02T08:01:44;94487.78;;;14.08;55.41
43934;BME280;59081;42.706;23.306;2023-04-02T08:04:18;94409.28;;;14.11;55.87
43934;BME280;59081;42.706;23.306;2023-04-02T08:06:48;94278.44;;;13.22;48.16
43934;BME280;59081;42.706;23.306;2023-04-02T08:09:15;94344.56;;;13.65;49.90
43934;BME280;59081;42.706;23.306;2023-04-02T08:11:43;94385.50;;;14.05;53.01
43934;BME280;59081;42.706;23.306;2023-04-02T08:14:12;94456.69;;;15.13;50.32
43934;BME280;59081;42.706;23.306;2023-04-02T08:16:45;94342.94;;;14.72;50.29
43934;BME280;59081;42.706;23.306;2023-04-02T08:19:11;94511.50;;;15.99;48.48
43934;BME280;59081;42.706;23.306;2023-04-02T08:21:37;94420.28;;;15.05;43.53
43934;BME280;59081;42.706;23.306;2023-04-02T08:24:05;94338.56;;;14.31;44.25
43934;BME280;59081;42.706;23.306;2023-04-02T08:26:31;94410.56;;;14.60;45.59
43934;BME280;59081;42.706;23.306;2023-04-02T08:28:56;94376.69;;;14.50;44.95
43934;BME280;59081;42.706;23.306;2023-04-02T08:31:22;94530.09;;;14.97;44.74
43934;BME280;59081;42.706;23.306;2023-04-02T08:33:50;94271.56;;;13.18;45.24
43934;BME280;59081;42.706;23.306;2023-04-02T08:36:19;94335.50;;;13.49;45.97
43934;BME280;59081;42.706;23.306;2023-04-02T08:38:51;94263.66;;;12.72;44.97
43934;BME280;59081;42.706;23.306;2023-04-02T08:41:26;94310.69;;;13.26;47.72
43934;BME280;59081;42.706;23.306;2023-04-02T08:44:06;94349.81;;;13.09;46.45
43934;BME280;59081;42.706;23.306;2023-04-02T08:47:07;94336.22;;;13.20;46.63
43934;BME280;59081;42.706;23.306;2023-04-02T08:49:42;94432.19;;;13.68;44.12
43934;BME280;59081;42.706;23.306;2023-04-02T08:54:54;94298.38;;;13.41;44.53
43934;BME280;59081;42.706;23.306;2023-04-02T09:00:19;94282.44;;;13.21;45.00
43934;BME280;59081;42.706;23.306;2023-04-02T09:03:35;94460.78;;;14.47;45.47
43934;BME280;59081;42.706;23.306;2023-04-02T09:08:33;94463.34;;;14.36;43.98
43934;BME280;59081;42.706;23.306;2023-04-02T09:11:08;94454.34;;;14.12;44.09
43934;BME280;59081;42.706;23.306;2023-04-02T09:13:54;94353.03;;;13.32;44.64
43934;BME280;59081;42.706;23.306;2023-04-02T09:16:47;94354.66;;;13.23;45.59
43934;BME280;59081;42.706;23.306;2023-04-02T09:19:19;94287.31;;;12.73;45.29
43934;BME280;59081;42.706;23.306;2023-04-02T09:22:03;94298.59;;;12.37;45.93
43934;BME280;59081;42.706;23.306;2023-04-02T09:24:33;94521.28;;;14.10;45.88
43934;BME280;59081;42.706;23.306;2023-04-02T09:27:01;94515.56;;;14.14;45.00
43934;BME280;59081;42.706;23.306;2023-04-02T09:29:45;94440.91;;;13.51;46.19
43934;BME280;59081;42.706;23.306;2023-04-02T09:32:25;94392.41;;;13.27;45.30
43934;BME280;59081;42.706;23.306;2023-04-02T09:35:13;94403.69;;;13.38;45.60
43934;BME280;59081;42.706;23.306;2023-04-02T09:37:41;94520.47;;;14.19;45.37
43934;BME280;59081;42.706;23.306;2023-04-02T09:40:28;94514.66;;;14.61;44.76
43934;BME280;59081;42.706;23.306;2023-04-02T09:43:15;94493.69;;;15.10;42.78
43934;BME280;59081;42.706;23.306;2023-04-02T09:48:25;94508.50;;;14.86;43.17
43934;BME280;59081;42.706;23.306;2023-04-02T09:53:35;94421.41;;;14.28;42.20
43934;BME280;59081;42.706;23.306;2023-04-02T09:56:21;94484.41;;;14.78;42.06
43934;BME280;59081;42.706;23.306;2023-04-02T09:59:13;94485.13;;;14.43;42.89
43934;BME280;59081;42.706;23.306;2023-04-02T10:02:13;94475.66;;;14.65;43.33
43934;BME280;59081;42.706;23.306;2023-04-02T10:04:44;94310.13;;;13.66;42.29
43934;BME280;59081;42.706;23.306;2023-04-02T10:10:25;94461.16;;;14.90;43.05
43934;BME280;59081;42.706;23.306;2023-04-02T10:12:59;94379.44;;;14.50;42.67
43934;BME280;59081;42.706;23.306;2023-04-02T10:15:36;94222.91;;;13.55;42.60
43934;BME280;59081;42.706;23.306;2023-04-02T10:20:46;94399.63;;;14.51;43.21
43934;BME280;59081;42.706;23.306;2023-04-02T10:23:16;94336.03;;;14.12;43.41
43934;BME280;59081;42.706;23.306;2023-04-02T10:28:55;94475.13;;;15.97;41.20
43934;BME280;59081;42.706;23.306;2023-04-02T10:31:37;94347.25;;;15.60;40.29
43934;BME280;59081;42.706;23.306;2023-04-02T10:34:23;94319.00;;;15.87;38.72
43934;BME280;59081;42.706;23.306;2023-04-02T10:36:57;94342.53;;;16.23;38.24
43934;BME280;59081;42.706;23.306;2023-04-02T10:39:46;94451.19;;;17.36;37.54
43934;BME280;59081;42.706;23.306;2023-04-02T10:48:20;94471.19;;;17.94;35.83
43934;BME280;59081;42.706;23.306;2023-04-02T10:51:28;94464.53;;;17.69;35.38
43934;BME280;59081;42.706;23.306;2023-04-02T10:56:29;94301.75;;;16.09;35.72
43934;BME280;59081;42.706;23.306;2023-04-02T10:59:09;94248.13;;;15.97;35.65
43934;BME280;59081;42.706;23.306;2023-04-02T11:01:40;94281.00;;;16.47;36.13
43934;BME280;59081;42.706;23.306;2023-04-02T11:06:46;94363.06;;;17.22;35.13
43934;BME280;59081;42.706;23.306;2023-04-02T11:09:17;94318.34;;;17.37;34.11
43934;BME280;59081;42.706;23.306;2023-04-02T11:11:52;94254.22;;;16.98;33.77
43934;BME280;59081;42.706;23.306;2023-04-02T11:14:31;94317.34;;;17.40;34.05
43934;BME280;59081;42.706;23.306;2023-04-02T11:17:04;94319.19;;;17.71;33.20
43934;BME280;59081;42.706;23.306;2023-04-02T11:19:33;94292.25;;;16.21;34.37
43934;BME280;59081;42.706;23.306;2023-04-02T11:22:14;94386.78;;;17.07;35.15
43934;BME280;59081;42.706;23.306;2023-04-02T11:24:55;94360.16;;;17.59;34.25
43934;BME280;59081;42.706;23.306;2023-04-02T11:27:29;94455.06;;;18.43;33.05
43934;BME280;59081;42.706;23.306;2023-04-02T11:30:06;94400.06;;;18.32;32.06
43934;BME280;59081;42.706;23.306;2023-04-02T11:32:45;94241.94;;;17.44;32.21
43934;BME280;59081;42.706;23.306;2023-04-02T11:38:02;94313.84;;;18.57;31.87
43934;BME280;59081;42.706;23.306;2023-04-02T11:40:50;94386.97;;;19.30;30.96
43934;BME280;59081;42.706;23.306;2023-04-02T11:46:40;94286.19;;;17.30;32.74
43934;BME280;59081;42.706;23.306;2023-04-02T11:48:52;94214.88;;;17.83;31.72
43934;BME280;59081;42.706;23.306;2023-04-02T11:53:45;94435.56;;;19.79;30.42
43934;BME280;59081;42.706;23.306;2023-04-02T11:56:34;94381.41;;;19.88;29.47
43934;BME280;59081;42.706;23.306;2023-04-02T12:03:15;94422.78;;;20.41;29.72
43934;BME280;59081;42.706;23.306;2023-04-02T12:05:26;94393.25;;;20.05;29.36
43934;BME280;59081;42.706;23.306;2023-04-02T12:08:03;94440.03;;;19.24;30.30
43934;BME280;59081;42.706;23.306;2023-04-02T12:10:54;94429.41;;;19.11;31.38
43934;BME280;59081;42.706;23.306;2023-04-02T12:16:06;94264.22;;;18.27;30.83
43934;BME280;59081;42.706;23.306;2023-04-02T12:18:33;94386.50;;;19.84;29.54
43934;BME280;59081;42.706;23.306;2023-04-02T12:21:00;94311.16;;;19.67;29.04
43934;BME280;59081;42.706;23.306;2023-04-02T12:23:36;94318.97;;;20.09;29.04
43934;BME280;59081;42.706;23.306;2023-04-02T12:26:11;94345.16;;;20.12;28.38
43934;BME280;59081;42.706;23.306;2023-04-02T12:28:48;94421.06;;;20.93;27.87
43934;BME280;59081;42.706;23.306;2023-04-02T12:31:23;94338.19;;;20.60;27.55
43934;BME280;59081;42.706;23.306;2023-04-02T12:33:52;94200.25;;;19.15;27.84
43934;BME280;59081;42.706;23.306;2023-04-02T12:36:22;94179.66;;;17.24;29.92
43934;BME280;59081;42.706;23.306;2023-04-02T12:38:52;94278.94;;;18.11;30.08
43934;BME280;59081;42.706;23.306;2023-04-02T12:41:32;94259.91;;;18.26;29.87
43934;BME280;59081;42.706;23.306;2023-04-02T12:44:17;94408.34;;;19.22;30.06
43934;BME280;59081;42.706;23.306;2023-04-02T12:46:48;94221.16;;;18.23;29.60
43934;BME280;59081;42.706;23.306;2023-04-02T12:49:46;94399.63;;;19.42;29.42
43934;BME280;59081;42.706;23.306;2023-04-02T12:52:17;94186.75;;;17.36;29.81
43934;BME280;59081;42.706;23.306;2023-04-02T12:54:56;94399.03;;;18.58;30.18
43934;BME280;59081;42.706;23.306;2023-04-02T13:00:00;94363.28;;;18.56;30.37
43934;BME280;59081;42.706;23.306;2023-04-02T13:02:43;94281.44;;;18.20;30.27
43934;BME280;59081;42.706;23.306;2023-04-02T13:05:09;94351.00;;;19.15;29.55
43934;BME280;59081;42.706;23.306;2023-04-02T13:07:38;94343.50;;;19.57;28.72
43934;BME280;59081;42.706;23.306;2023-04-02T13:10:26;94259.84;;;19.23;28.77
43934;BME280;59081;42.706;23.306;2023-04-02T13:13:00;94303.44;;;20.14;27.72
43934;BME280;59081;42.706;23.306;2023-04-02T13:15:28;94189.63;;;19.49;27.40
43934;BME280;59081;42.706;23.306;2023-04-02T13:18:04;94381.63;;;21.15;26.97
43934;BME280;59081;42.706;23.306;2023-04-02T13:20:35;94133.31;;;19.99;26.28
43934;BME280;59081;42.706;23.306;2023-04-02T13:23:38;94392.94;;;22.14;24.86
43934;BME280;59081;42.706;23.306;2023-04-02T13:26:17;94384.94;;;22.00;24.89
43934;BME280;59081;42.706;23.306;2023-04-02T13:31:29;94211.72;;;20.61;24.60
43934;BME280;59081;42.706;23.306;2023-04-02T13:33:55;94209.97;;;20.34;25.30
43934;BME280;59081;42.706;23.306;2023-04-02T13:36:23;94389.03;;;21.61;24.69
43934;BME280;59081;42.706;23.306;2023-04-02T13:38:49;94205.00;;;20.94;24.42
43934;BME280;59081;42.706;23.306;2023-04-02T13:41:30;94157.38;;;20.57;24.32
43934;BME280;59081;42.706;23.306;2023-04-02T13:44:01;94201.94;;;21.48;23.69
43934;BME280;59081;42.706;23.306;2023-04-02T13:46:34;94273.50;;;22.19;23.39
43934;BME280;59081;42.706;23.306;2023-04-02T13:49:00;94160.50;;;20.91;22.82
43934;BME280;59081;42.706;23.306;2023-04-02T13:51:33;94181.44;;;20.84;23.66
43934;BME280;59081;42.706;23.306;2023-04-02T13:54:00;94180.50;;;20.33;24.05
43934;BME280;59081;42.706;23.306;2023-04-02T13:56:26;94158.78;;;20.20;24.48
43934;BME280;59081;42.706;23.306;2023-04-02T13:58:52;94325.75;;;21.04;25.18
43934;BME280;59081;42.706;23.306;2023-04-02T14:01:21;94124.78;;;19.32;25.29
43934;BME280;59081;42.706;23.306;2023-04-02T14:03:51;94186.94;;;18.91;26.08
43934;BME280;59081;42.706;23.306;2023-04-02T14:14:47;94379.00;;;18.76;28.47
43934;BME280;59081;42.706;23.306;2023-04-02T14:28:32;94225.16;;;16.40;30.11
43934;BME280;59081;42.706;23.306;2023-04-02T14:31:27;94250.53;;;17.40;29.11
43934;BME280;59081;42.706;23.306;2023-04-02T14:34:22;94189.75;;;18.11;28.07
43934;BME280;59081;42.706;23.306;2023-04-02T14:42:33;94364.47;;;20.10;26.14
43934;BME280;59081;42.706;23.306;2023-04-02T14:45:20;94345.16;;;20.12;25.37
43934;BME280;59081;42.706;23.306;2023-04-02T14:48:04;94144.47;;;19.09;25.10
43934;BME280;59081;42.706;23.306;2023-04-02T14:50:44;94229.88;;;19.70;24.92
43934;BME280;59081;42.706;23.306;2023-04-02T14:53:28;94154.28;;;19.22;25.26
43934;BME280;59081;42.706;23.306;2023-04-02T14:55:56;94320.94;;;20.20;25.30
43934;BME280;59081;42.706;23.306;2023-04-02T14:58:37;94198.34;;;18.24;26.44
43934;BME280;59081;42.706;23.306;2023-04-02T15:01:09;94146.00;;;17.78;29.69
43934;BME280;59081;42.706;23.306;2023-04-02T15:07:03;94220.53;;;16.74;28.93
43934;BME280;59081;42.706;23.306;2023-04-02T15:09:39;94383.19;;;17.54;31.24
43934;BME280;59081;42.706;23.306;2023-04-02T15:12:23;94222.94;;;16.55;30.93
43934;BME280;59081;42.706;23.306;2023-04-02T15:14:59;94123.94;;;16.04;31.40
43934;BME280;59081;42.706;23.306;2023-04-02T15:17:31;94272.47;;;17.10;32.96
43934;BME280;59081;42.706;23.306;2023-04-02T15:20:17;94208.31;;;16.60;29.24
43934;BME280;59081;42.706;23.306;2023-04-02T15:25:32;94215.84;;;16.54;30.75
43934;BME280;59081;42.706;23.306;2023-04-02T15:30:49;94185.81;;;16.04;31.93
43934;BME280;59081;42.706;23.306;2023-04-02T15:38:57;94240.59;;;16.04;33.71
43934;BME280;59081;42.706;23.306;2023-04-02T15:41:36;94193.03;;;15.53;31.52
43934;BME280;59081;42.706;23.306;2023-04-02T15:44:15;94397.13;;;17.00;32.09
43934;BME280;59081;42.706;23.306;2023-04-02T15:47:16;94260.97;;;15.95;30.11
43934;BME280;59081;42.706;23.306;2023-04-02T15:50:00;94250.53;;;15.53;30.55
43934;BME280;59081;42.706;23.306;2023-04-02T15:53:18;94303.09;;;15.56;30.18
43934;BME280;59081;42.706;23.306;2023-04-02T15:56:21;94389.75;;;15.92;30.52
43934;BME280;59081;42.706;23.306;2023-04-02T15:59:06;94143.31;;;14.00;30.80
43934;BME280;59081;42.706;23.306;2023-04-02T16:02:26;94395.56;;;15.48;31.17
43934;BME280;59081;42.706;23.306;2023-04-02T16:11:14;94207.72;;;13.80;32.13
43934;BME280;59081;42.706;23.306;2023-04-02T16:13:41;94317.56;;;14.59;32.34
43934;BME280;59081;42.706;23.306;2023-04-02T16:19:29;94160.94;;;13.47;32.31
43934;BME280;59081;42.706;23.306;2023-04-02T16:24:59;94219.34;;;13.84;32.96
43934;BME280;59081;42.706;23.306;2023-04-02T16:27:37;94304.47;;;14.24;33.16
43934;BME280;59081;42.706;23.306;2023-04-02T16:39:02;94408.28;;;14.58;33.36
43934;BME280;59081;42.706;23.306;2023-04-02T16:48:06;94304.41;;;13.84;33.90
43934;BME280;59081;42.706;23.306;2023-04-02T16:53:43;94359.94;;;13.95;34.13
43934;BME280;59081;42.706;23.306;2023-04-02T17:02:37;94311.47;;;13.41;34.73